ADDS METAR Data INFO
IDs: Format: Raw Decoded Include TAF

Data at: 1231 UTC 25 Jul 2017

KPEQ 251215Z AUTO 00000KT 10SM CLR 22/18 A3005 RMK AO2 T02190175
KPEQ 251155Z AUTO 00000KT 10SM CLR 22/18 A3005 RMK AO2 T02220178 10270 20222
KPEQ 251135Z AUTO 11004KT 10SM CLR 23/18 A3004 RMK AO2 T02250180
KPEQ 251115Z AUTO 09005KT 10SM CLR 23/19 A3004 RMK AO2 T02260185
KPEQ 251055Z AUTO 08005KT 10SM CLR 23/19 A3003 RMK AO2 T02260186
KPEQ 251035Z AUTO 08003KT 10SM CLR 23/19 A3003 RMK AO2 T02280187
KPEQ 251015Z AUTO 09005KT 10SM CLR 23/19 A3003 RMK AO2 T02300187
KPEQ 250955Z AUTO 08005KT 10SM CLR 23/19 A3002 RMK AO2 T02320186
KPEQ 250935Z AUTO 09005KT 10SM CLR 24/19 A3002 RMK AO2 T02380185
KPEQ 250915Z AUTO 09006KT 10SM CLR 24/19 A3003 RMK AO2 T02400185
KPEQ 250855Z AUTO 10006KT 10SM CLR 24/19 A3002 RMK AO2 T02420185
KPEQ 250835Z AUTO 09006KT 10SM CLR 24/19 A3002 RMK AO2 T02440185
KPEQ 250815Z AUTO 08008KT 10SM CLR 25/18 A3002 RMK AO2 T02450180
KPEQ 250755Z AUTO 07007KT 10SM CLR 25/17 A3002 RMK AO2 T02470172
KPEQ 250735Z AUTO 09005KT 10SM CLR 25/17 A3002 RMK AO2 T02540168
KPEQ 250715Z AUTO 08004KT 10SM CLR 26/17 A3002 RMK AO2 T02550171
KPEQ 250655Z AUTO 06005KT 10SM CLR 26/17 A3003 RMK AO2 T02550172
KPEQ 250635Z AUTO 13004KT 10SM CLR 26/17 A3002 RMK AO2 T02580172
KPEQ 250615Z AUTO 14005KT 10SM CLR 26/17 A3002 RMK AO2 T02630173
KPEQ 250555Z AUTO 14005KT 10SM CLR 27/17 A3002 RMK AO2 T02720170 10327 20265 403740223
KPEQ 250535Z AUTO 15006KT 10SM CLR 27/18 A3002 RMK AO2 T02700175
KPEQ 250515Z AUTO 15003KT 10SM CLR 27/18 A3002 RMK AO2 T02680181
KPEQ 250455Z AUTO 14003KT 10SM CLR 27/18 A3001 RMK AO2 T02700184
KPEQ 250435Z AUTO 11003KT 10SM CLR 27/18 A3001 RMK AO2 T02660180
KPEQ 250415Z AUTO 12005KT 10SM CLR 27/18 A3001 RMK AO2 T02730178
KPEQ 250355Z AUTO 10009KT 10SM CLR 27/18 A3000 RMK AO2 T02680176
KPEQ 250335Z AUTO 00000KT 10SM CLR 28/18 A2999 RMK AO2 T02750176
KPEQ 250315Z AUTO 00000KT 10SM CLR 28/16 A2999 RMK AO2 T02820163
KPEQ 250255Z AUTO 00000KT 10SM CLR 29/16 A2998 RMK AO2 T02860155
KPEQ 250235Z AUTO 00000KT 10SM CLR 29/15 A2998 RMK AO2 T02920154
KPEQ 250215Z AUTO 22003KT 10SM CLR 30/15 A2996 RMK AO2 T02960153
KPEQ 250155Z AUTO 21003KT 10SM CLR 30/16 A2995 RMK AO2 T03020160
KPEQ 250135Z AUTO 20004KT 10SM CLR 31/16 A2995 RMK AO2 T03100160
KPEQ 250115Z AUTO 19005KT 10SM CLR 31/16 A2994 RMK AO2 T03140161
KPEQ 250055Z AUTO 19006KT 10SM CLR 32/16 A2993 RMK AO2 T03220156
KPEQ 250035Z AUTO 20009KT 10SM CLR 33/15 A2993 RMK AO2 T03270153
KPEQ 250015Z AUTO 17006KT 10SM CLR 32/15 A2993 RMK AO2 LTG DSNT SW T03180154
KPEQ 242355Z AUTO 20004KT 10SM CLR 31/16 A2993 RMK AO2 LTG DSNT SW T03140156 10374 20285
KPEQ 242335Z AUTO 20004KT 10SM CLR 31/15 A2993 RMK AO2 T03050149
KPEQ 242315Z AUTO 17006KT 10SM CLR 30/16 A2995 RMK AO2 T03030161
KPEQ 242255Z AUTO 16004KT 10SM CLR 31/15 A2995 RMK AO2 T03050151
KPEQ 242235Z AUTO 11005KT 10SM CLR 30/16 A2995 RMK AO2 T03040156
KPEQ 242215Z AUTO 16008KT 1SM TSHZ BKN085 30/17 A2996 RMK AO2 VIS M1/4V5 LTG DSNT N NE AND SW T02950168
KPEQ 242155Z AUTO 13016G26KT 10SM SCT085 SCT110 29/17 A2997 RMK AO2 LTG DSNT NE T02940168
KPEQ 242135Z AUTO 14027G37KT 4SM VCTSHZ SCT003 BKN085 BKN110 30/18 A2997 RMK AO2 LTG DSNT SE AND S T02950180
KPEQ 242115Z AUTO 17020G28KT 10SM TS SCT085 35/17 A2995 RMK AO2 LTG DSNT E THRU SW T03490167
KPEQ 242055Z AUTO 16007KT 10SM CLR 37/15 A2995 RMK AO2 LTG DSNT SE THRU SW T03650146
KPEQ 242035Z AUTO 12010KT 100V180 10SM CLR 36/14 A2995 RMK AO2 LTG DSNT S T03580141
KPEQ 242015Z AUTO 10009KT 10SM CLR 37/14 A2996 RMK AO2 LTG DSNT S T03660136
KPEQ 241955Z AUTO 04004KT 10SM CLR 36/14 A2997 RMK AO2 LTG DSNT S T03560138
KPEQ 241935Z AUTO 13005KT 10SM CLR 35/15 A2998 RMK AO2 LTG DSNT SW T03490147
KPEQ 241915Z AUTO 32005KT 10SM CLR 35/16 A2998 RMK AO2 T03500160
KPEQ 241855Z AUTO 00000KT 10SM CLR 34/17 A2999 RMK AO2 T03410165
KPEQ 241835Z AUTO 01005KT 10SM CLR 34/17 A3000 RMK AO2 T03410166
KPEQ 241815Z AUTO 00000KT 10SM CLR 33/17 A3000 RMK AO2 T03280165
KPEQ 241755Z AUTO 03003KT 10SM CLR 33/17 A3001 RMK AO2 T03260166 10332 20223
KPEQ 241735Z AUTO 07004KT 10SM CLR 33/17 A3002 RMK AO2 T03310170
KPEQ 241715Z AUTO 03004KT 10SM CLR 32/17 A3002 RMK AO2 T03170172
KPEQ 241655Z AUTO 33005KT 10SM CLR 31/18 A3003 RMK AO2 T03120176
KPEQ 241635Z AUTO 00000KT 10SM CLR 31/18 A3003 RMK AO2 T03060176
KPEQ 241615Z AUTO 03003KT 10SM CLR 30/18 A3003 RMK AO2 T02970177
KPEQ 241555Z AUTO 04003KT 10SM CLR 29/18 A3003 RMK AO2 T02940175
KPEQ 241535Z AUTO 00000KT 10SM CLR 28/18 A3004 RMK AO2 T02820175
KPEQ 241515Z AUTO 00000KT 10SM CLR 28/18 A3004 RMK AO2 T02780181
KPEQ 241455Z AUTO 00000KT 10SM CLR 27/18 A3004 RMK AO2 T02730183
KPEQ 241435Z AUTO 07005KT 10SM CLR 27/18 A3004 RMK AO2 T02680184
KPEQ 241415Z AUTO 05005KT 10SM CLR 26/19 A3005 RMK AO2 T02590190
KPEQ 241355Z AUTO 07005KT 10SM CLR 26/19 A3003 RMK AO2 T02550189
KPEQ 241335Z AUTO 08003KT 10SM CLR 25/19 A3003 RMK AO2 T02460192
KPEQ 241315Z AUTO 07004KT 10SM CLR 23/19 A3003 RMK AO2 T02320194
KPEQ 241255Z AUTO 06003KT 10SM CLR 23/19 A3003 RMK AO2 T02250190
KPEQ 241235Z AUTO 06004KT 10SM CLR 23/19 A3002 RMK AO2 T02250188
KPEQ 241215Z AUTO 00000KT 10SM CLR 23/19 A3002 RMK AO2 T02250186
KPEQ 241155Z AUTO 00000KT 10SM CLR 23/18 A3001 RMK AO2 T02300182 10245 20230
KPEQ 241135Z AUTO 00000KT 10SM CLR 23/18 A3001 RMK AO2 T02340180
KPEQ 241115Z AUTO 00000KT 10SM CLR 24/18 A3000 RMK AO2 T02350177
KPEQ 241055Z AUTO 00000KT 10SM CLR 24/18 A3000 RMK AO2 T02350180
KPEQ 241035Z AUTO 08003KT 10SM CLR 24/18 A3000 RMK AO2 T02350179
KPEQ 241015Z AUTO 00000KT 10SM CLR 24/18 A3000 RMK AO2 T02380180
KPEQ 240955Z AUTO 00000KT 10SM CLR 24/18 A3000 RMK AO2 T02400177
KPEQ 240935Z AUTO 00000KT 10SM CLR 24/18 A2999 RMK AO2 T02400175
KPEQ 240915Z AUTO 00000KT 10SM CLR 24/18 A3000 RMK AO2 T02410177
KPEQ 240855Z AUTO 00000KT 10SM CLR 24/18 A3000 RMK AO2 T02410180
KPEQ 240835Z AUTO 00000KT 10SM CLR 24/18 A3000 RMK AO2 T02400182
KPEQ 240815Z AUTO 00000KT 10SM CLR 24/18 A3000 RMK AO2 T02410180
KPEQ 240755Z AUTO 00000KT 10SM CLR 24/18 A3000 RMK AO2 T02400181
KPEQ 240735Z AUTO 00000KT 10SM CLR 24/18 A3001 RMK AO2 T02370183
KPEQ 240715Z AUTO 19003KT 10SM CLR 24/18 A3000 RMK AO2 T02350183
KPEQ 240655Z AUTO 13003KT 10SM CLR 23/18 A3000 RMK AO2 T02340182
KPEQ 240635Z AUTO 00000KT 10SM CLR 24/18 A3000 RMK AO2 T02360181
KPEQ 240615Z AUTO 11004KT 10SM SCT120 24/18 A3001 RMK AO2 T02420182
KPEQ 240555Z AUTO 10009KT 10SM BKN120 24/18 A3002 RMK AO2 T02420178 10310 20240 403370217
KPEQ 240535Z AUTO 00000KT 10SM SCT120 24/16 A3001 RMK AO2 LTG DSNT NW T02440161
KPEQ 240515Z AUTO 00000KT 10SM CLR 25/16 A3000 RMK AO2 T02500161
KPEQ 240455Z AUTO 00000KT 10SM CLR 25/17 A3000 RMK AO2 T02500165
KPEQ 240435Z AUTO 00000KT 10SM CLR 25/16 A3000 RMK AO2 T02500160
KPEQ 240415Z AUTO 00000KT 10SM CLR 25/16 A3000 RMK AO2 T02490160
KPEQ 240355Z AUTO 00000KT 10SM CLR 25/16 A3000 RMK AO2 T02510161
KPEQ 240335Z AUTO 20003KT 10SM CLR 26/16 A3000 RMK AO2 T02550162
KPEQ 240315Z AUTO 22003KT 10SM CLR 26/16 A2999 RMK AO2 T02560160
KPEQ 240255Z AUTO 20005KT 10SM CLR 26/16 A2999 RMK AO2 T02630158
KPEQ 240235Z AUTO 00000KT 10SM CLR 26/16 A2999 RMK AO2 T02630157
KPEQ 240215Z AUTO 20004KT 10SM CLR 27/16 A2998 RMK AO2 T02660157
KPEQ 240155Z AUTO 22003KT 10SM CLR 27/16 A2998 RMK AO2 T02740156
KPEQ 240135Z AUTO 23005KT 10SM CLR 28/15 A2998 RMK AO2 T02760151
KPEQ 240115Z AUTO 25008KT 10SM CLR 28/15 A2997 RMK AO2 LTG DSNT W AND NW T02830151
KPEQ 240055Z AUTO 22008KT 10SM CLR 29/14 A2996 RMK AO2 LTG DSNT W T02930143
KPEQ 240035Z AUTO 21010KT 10SM CLR 29/15 A2996 RMK AO2 LTG DSNT W AND NW T02900152